sensor_id;sensor_type;location;lat;lon;timestamp;temperature;humidity
29501;DHT22;16450;50.288;10.966;2023-02-01T00:00:18;2.80;99.90
29501;DHT22;16450;50.288;10.966;2023-02-01T00:03:21;2.80;99.90
29501;DHT22;16450;50.288;10.966;2023-02-01T00:06:23;2.80;99.90
29501;DHT22;16450;50.288;10.966;2023-02-01T00:09:25;2.80;99.90
29501;DHT22;16450;50.288;10.966;2023-02-01T00:12:26;2.80;99.90
29501;DHT22;16450;50.288;10.966;2023-02-01T00:15:28;2.80;99.90
29501;DHT22;16450;50.288;10.966;2023-02-01T00:18:31;2.80;99.90
29501;DHT22;16450;50.288;10.966;2023-02-01T00:21:32;2.80;99.90
29501;DHT22;16450;50.288;10.966;2023-02-01T00:24:34;2.90;99.90
29501;DHT22;16450;50.288;10.966;2023-02-01T00:27:36;2.90;99.90
29501;DHT22;16450;50.288;10.966;2023-02-01T00:30:38;2.90;99.90
29501;DHT22;16450;50.288;10.966;2023-02-01T00:33:40;3.00;99.90
29501;DHT22;16450;50.288;10.966;2023-02-01T00:36:43;3.00;99.90
29501;DHT22;16450;50.288;10.966;2023-02-01T00:39:45;3.00;99.90
29501;DHT22;16450;50.288;10.966;2023-02-01T00:42:46;3.10;99.90
29501;DHT22;16450;50.288;10.966;2023-02-01T00:45:48;3.10;99.90
29501;DHT22;16450;50.288;10.966;2023-02-01T00:48:50;3.10;99.90
29501;DHT22;16450;50.288;10.966;2023-02-01T00:51:52;3.20;99.90
29501;DHT22;16450;50.288;10.966;2023-02-01T00:54:53;3.20;99.90
29501;DHT22;16450;50.288;10.966;2023-02-01T00:57:55;3.20;99.90
29501;DHT22;16450;50.288;10.966;2023-02-01T01:04:15;3.30;99.90
29501;DHT22;16450;50.288;10.966;2023-02-01T01:07:17;3.30;99.90
29501;DHT22;16450;50.288;10.966;2023-02-01T01:10:19;3.30;99.90
29501;DHT22;16450;50.288;10.966;2023-02-01T01:13:22;3.30;99.90
29501;DHT22;16450;50.288;10.966;2023-02-01T01:16:25;3.20;99.90
29501;DHT22;16450;50.288;10.966;2023-02-01T01:19:27;3.20;99.90
29501;DHT22;16450;50.288;10.966;2023-02-01T01:22:29;3.10;99.90
29501;DHT22;16450;50.288;10.966;2023-02-01T01:25:31;3.00;99.90
29501;DHT22;16450;50.288;10.966;2023-02-01T01:28:33;3.00;99.90
29501;DHT22;16450;50.288;10.966;2023-02-01T01:31:35;2.90;99.90
29501;DHT22;16450;50.288;10.966;2023-02-01T01:34:36;2.80;99.90
29501;DHT22;16450;50.288;10.966;2023-02-01T01:37:38;2.80;99.90
29501;DHT22;16450;50.288;10.966;2023-02-01T01:40:44;2.70;99.90
29501;DHT22;16450;50.288;10.966;2023-02-01T01:46:57;2.60;99.90
29501;DHT22;16450;50.288;10.966;2023-02-01T01:49:59;2.60;99.90
29501;DHT22;16450;50.288;10.966;2023-02-01T01:53:06;2.50;99.90
29501;DHT22;16450;50.288;10.966;2023-02-01T01:56:10;2.50;99.90
29501;DHT22;16450;50.288;10.966;2023-02-01T01:59:12;2.50;99.90
29501;DHT22;16450;50.288;10.966;2023-02-01T02:02:14;2.40;99.90
29501;DHT22;16450;50.288;10.966;2023-02-01T02:05:18;2.50;99.90
29501;DHT22;16450;50.288;10.966;2023-02-01T02:08:21;2.40;99.90
29501;DHT22;16450;50.288;10.966;2023-02-01T02:11:23;2.40;99.90
29501;DHT22;16450;50.288;10.966;2023-02-01T02:14:26;2.40;99.90
29501;DHT22;16450;50.288;10.966;2023-02-01T02:21:09;2.40;99.90
29501;DHT22;16450;50.288;10.966;2023-02-01T02:24:48;2.50;99.90
29501;DHT22;16450;50.288;10.966;2023-02-01T02:28:02;2.40;99.90
29501;DHT22;16450;50.288;10.966;2023-02-01T02:34:49;2.50;99.90
29501;DHT22;16450;50.288;10.966;2023-02-01T02:38:08;2.50;99.90
29501;DHT22;16450;50.288;10.966;2023-02-01T02:41:35;2.60;99.90
29501;DHT22;16450;50.288;10.966;2023-02-01T02:45:08;2.60;99.90
29501;DHT22;16450;50.288;10.966;2023-02-01T02:48:52;2.60;99.90
29501;DHT22;16450;50.288;10.966;2023-02-01T02:52:09;2.60;99.90
29501;DHT22;16450;50.288;10.966;2023-02-01T02:55:35;2.60;99.90
29501;DHT22;16450;50.288;10.966;2023-02-01T02:58:38;2.70;99.90
29501;DHT22;16450;50.288;10.966;2023-02-01T03:01:59;2.70;99.90
29501;DHT22;16450;50.288;10.966;2023-02-01T03:05:20;2.70;99.90
29501;DHT22;16450;50.288;10.966;2023-02-01T03:08:24;2.70;99.90
29501;DHT22;16450;50.288;10.966;2023-02-01T03:11:27;2.70;99.90
29501;DHT22;16450;50.288;10.966;2023-02-01T03:14:53;2.80;99.90
29501;DHT22;16450;50.288;10.966;2023-02-01T03:17:58;2.80;99.90
29501;DHT22;16450;50.288;10.966;2023-02-01T03:21:06;2.80;99.90
29501;DHT22;16450;50.288;10.966;2023-02-01T03:24:14;2.80;99.90
29501;DHT22;16450;50.288;10.966;2023-02-01T03:27:27;2.90;99.90
29501;DHT22;16450;50.288;10.966;2023-02-01T03:30:35;2.90;99.90
29501;DHT22;16450;50.288;10.966;2023-02-01T03:33:38;3.00;99.90
29501;DHT22;16450;50.288;10.966;2023-02-01T03:36:54;2.90;99.90
29501;DHT22;16450;50.288;10.966;2023-02-01T03:40:01;2.90;99.90
29501;DHT22;16450;50.288;10.966;2023-02-01T03:43:06;2.90;99.90
29501;DHT22;16450;50.288;10.966;2023-02-01T03:46:16;2.90;99.90
29501;DHT22;16450;50.288;10.966;2023-02-01T03:49:35;2.90;99.90
29501;DHT22;16450;50.288;10.966;2023-02-01T03:52:51;3.00;99.90
29501;DHT22;16450;50.288;10.966;2023-02-01T03:55:56;2.90;99.90
29501;DHT22;16450;50.288;10.966;2023-02-01T03:58:58;3.00;99.90
29501;DHT22;16450;50.288;10.966;2023-02-01T04:02:00;3.00;99.90
29501;DHT22;16450;50.288;10.966;2023-02-01T04:05:02;3.00;99.90
29501;DHT22;16450;50.288;10.966;2023-02-01T04:08:04;3.00;99.90
29501;DHT22;16450;50.288;10.966;2023-02-01T04:11:06;3.00;99.90
29501;DHT22;16450;50.288;10.966;2023-02-01T04:14:08;3.00;99.90
29501;DHT22;16450;50.288;10.966;2023-02-01T04:17:10;3.00;99.90
29501;DHT22;16450;50.288;10.966;2023-02-01T04:20:11;3.00;99.90
29501;DHT22;16450;50.288;10.966;2023-02-01T04:23:13;2.90;99.90
29501;DHT22;16450;50.288;10.966;2023-02-01T04:26:17;3.00;99.90
29501;DHT22;16450;50.288;10.966;2023-02-01T04:29:18;3.00;99.90
29501;DHT22;16450;50.288;10.966;2023-02-01T04:32:20;3.00;99.90
29501;DHT22;16450;50.288;10.966;2023-02-01T04:35:22;2.90;99.90
29501;DHT22;16450;50.288;10.966;2023-02-01T04:38:24;2.90;99.90
29501;DHT22;16450;50.288;10.966;2023-02-01T04:41:26;3.00;99.90
29501;DHT22;16450;50.288;10.966;2023-02-01T04:44:27;3.00;99.90
29501;DHT22;16450;50.288;10.966;2023-02-01T04:47:29;3.00;99.90
29501;DHT22;16450;50.288;10.966;2023-02-01T04:50:31;2.90;99.90
29501;DHT22;16450;50.288;10.966;2023-02-01T04:53:33;3.00;99.90
29501;DHT22;16450;50.288;10.966;2023-02-01T04:56:35;3.00;99.90
29501;DHT22;16450;50.288;10.966;2023-02-01T04:59:36;3.00;99.90
29501;DHT22;16450;50.288;10.966;2023-02-01T05:02:38;3.00;99.90
29501;DHT22;16450;50.288;10.966;2023-02-01T05:05:40;2.90;99.90
29501;DHT22;16450;50.288;10.966;2023-02-01T05:08:42;2.90;99.90
29501;DHT22;16450;50.288;10.966;2023-02-01T05:11:44;2.90;99.90
29501;DHT22;16450;50.288;10.966;2023-02-01T05:15:05;2.90;99.90
29501;DHT22;16450;50.288;10.966;2023-02-01T05:18:07;2.90;99.90
29501;DHT22;16450;50.288;10.966;2023-02-01T05:21:09;2.90;99.90
29501;DHT22;16450;50.288;10.966;2023-02-01T05:24:11;2.90;99.90
29501;DHT22;16450;50.288;10.966;2023-02-01T05:27:21;2.90;99.90
29501;DHT22;16450;50.288;10.966;2023-02-01T05:30:23;2.90;99.90
29501;DHT22;16450;50.288;10.966;2023-02-01T05:33:25;2.90;99.90
29501;DHT22;16450;50.288;10.966;2023-02-01T05:36:27;2.90;99.90
29501;DHT22;16450;50.288;10.966;2023-02-01T05:39:29;2.90;99.90
29501;DHT22;16450;50.288;10.966;2023-02-01T05:42:31;2.90;99.90
29501;DHT22;16450;50.288;10.966;2023-02-01T05:45:32;2.90;99.90
29501;DHT22;16450;50.288;10.966;2023-02-01T05:48:34;2.90;99.90
29501;DHT22;16450;50.288;10.966;2023-02-01T05:51:36;2.90;99.90
29501;DHT22;16450;50.288;10.966;2023-02-01T05:54:38;2.90;99.90
29501;DHT22;16450;50.288;10.966;2023-02-01T05:57:40;2.80;99.90
29501;DHT22;16450;50.288;10.966;2023-02-01T06:00:41;2.90;99.90
29501;DHT22;16450;50.288;10.966;2023-02-01T06:03:43;2.80;99.90
29501;DHT22;16450;50.288;10.966;2023-02-01T06:06:45;2.90;99.90
29501;DHT22;16450;50.288;10.966;2023-02-01T06:09:47;2.80;99.90
29501;DHT22;16450;50.288;10.966;2023-02-01T06:12:48;2.90;99.90
29501;DHT22;16450;50.288;10.966;2023-02-01T06:15:50;2.90;99.90
29501;DHT22;16450;50.288;10.966;2023-02-01T06:18:52;2.90;99.90
29501;DHT22;16450;50.288;10.966;2023-02-01T06:21:55;2.90;99.90
29501;DHT22;16450;50.288;10.966;2023-02-01T06:24:57;2.90;99.90
29501;DHT22;16450;50.288;10.966;2023-02-01T06:28:00;3.00;99.90
29501;DHT22;16450;50.288;10.966;2023-02-01T06:31:04;3.00;99.90
29501;DHT22;16450;50.288;10.966;2023-02-01T06:34:08;3.00;99.90
29501;DHT22;16450;50.288;10.966;2023-02-01T06:37:10;3.00;99.90
29501;DHT22;16450;50.288;10.966;2023-02-01T06:40:12;3.00;99.90
29501;DHT22;16450;50.288;10.966;2023-02-01T06:43:14;3.00;99.90
29501;DHT22;16450;50.288;10.966;2023-02-01T06:46:16;3.10;99.90
29501;DHT22;16450;50.288;10.966;2023-02-01T06:49:18;3.00;99.90
29501;DHT22;16450;50.288;10.966;2023-02-01T06:52:21;3.00;99.90
29501;DHT22;16450;50.288;10.966;2023-02-01T06:55:23;3.00;99.90
29501;DHT22;16450;50.288;10.966;2023-02-01T06:58:31;2.90;99.90
29501;DHT22;16450;50.288;10.966;2023-02-01T07:01:33;3.00;99.90
29501;DHT22;16450;50.288;10.966;2023-02-01T07:04:35;2.90;99.90
29501;DHT22;16450;50.288;10.966;2023-02-01T07:07:37;2.90;99.90
29501;DHT22;16450;50.288;10.966;2023-02-01T07:10:41;2.90;99.90
29501;DHT22;16450;50.288;10.966;2023-02-01T07:13:44;2.90;99.90
29501;DHT22;16450;50.288;10.966;2023-02-01T07:16:45;2.90;99.90
29501;DHT22;16450;50.288;10.966;2023-02-01T07:19:47;2.90;99.90
29501;DHT22;16450;50.288;10.966;2023-02-01T07:22:54;2.90;99.90
29501;DHT22;16450;50.288;10.966;2023-02-01T07:25:59;2.90;99.90
29501;DHT22;16450;50.288;10.966;2023-02-01T07:29:01;2.90;99.90
29501;DHT22;16450;50.288;10.966;2023-02-01T07:32:03;2.90;99.90
29501;DHT22;16450;50.288;10.966;2023-02-01T07:35:05;3.00;99.90
29501;DHT22;16450;50.288;10.966;2023-02-01T07:38:07;3.00;99.90
29501;DHT22;16450;50.288;10.966;2023-02-01T07:41:10;3.00;99.90
29501;DHT22;16450;50.288;10.966;2023-02-01T07:44:11;3.10;99.90
29501;DHT22;16450;50.288;10.966;2023-02-01T07:47:13;3.10;99.90
29501;DHT22;16450;50.288;10.966;2023-02-01T07:50:15;3.10;99.90
29501;DHT22;16450;50.288;10.966;2023-02-01T07:53:17;3.20;99.90
29501;DHT22;16450;50.288;10.966;2023-02-01T07:56:20;3.20;99.90
29501;DHT22;16450;50.288;10.966;2023-02-01T07:59:24;3.20;99.90
29501;DHT22;16450;50.288;10.966;2023-02-01T08:02:26;3.20;99.90
29501;DHT22;16450;50.288;10.966;2023-02-01T08:05:28;3.30;99.90
29501;DHT22;16450;50.288;10.966;2023-02-01T08:08:29;3.30;99.90
29501;DHT22;16450;50.288;10.966;2023-02-01T08:11:32;3.30;99.90
29501;DHT22;16450;50.288;10.966;2023-02-01T08:14:33;3.30;99.90
29501;DHT22;16450;50.288;10.966;2023-02-01T08:17:35;3.40;99.90
29501;DHT22;16450;50.288;10.966;2023-02-01T08:20:37;3.40;99.90
29501;DHT22;16450;50.288;10.966;2023-02-01T08:23:42;3.40;99.90
29501;DHT22;16450;50.288;10.966;2023-02-01T08:26:45;3.40;99.90
29501;DHT22;16450;50.288;10.966;2023-02-01T08:29:46;3.50;99.90
29501;DHT22;16450;50.288;10.966;2023-02-01T08:32:48;3.50;99.90
29501;DHT22;16450;50.288;10.966;2023-02-01T08:35:50;3.50;99.90
29501;DHT22;16450;50.288;10.966;2023-02-01T08:38:52;3.50;99.90
29501;DHT22;16450;50.288;10.966;2023-02-01T08:41:53;3.50;99.90
29501;DHT22;16450;50.288;10.966;2023-02-01T08:45:14;3.50;99.90
29501;DHT22;16450;50.288;10.966;2023-02-01T08:48:16;3.50;99.90
29501;DHT22;16450;50.288;10.966;2023-02-01T08:51:19;3.50;99.90
29501;DHT22;16450;50.288;10.966;2023-02-01T08:54:22;3.50;99.90
29501;DHT22;16450;50.288;10.966;2023-02-01T08:57:24;3.40;99.90
29501;DHT22;16450;50.288;10.966;2023-02-01T09:00:25;3.50;99.90
29501;DHT22;16450;50.288;10.966;2023-02-01T09:03:27;3.50;99.90
29501;DHT22;16450;50.288;10.966;2023-02-01T09:06:29;3.50;99.90
29501;DHT22;16450;50.288;10.966;2023-02-01T09:09:31;3.50;99.90
29501;DHT22;16450;50.288;10.966;2023-02-01T09:12:34;3.50;99.90
29501;DHT22;16450;50.288;10.966;2023-02-01T09:15:37;3.50;99.90
29501;DHT22;16450;50.288;10.966;2023-02-01T09:18:39;3.50;99.90
29501;DHT22;16450;50.288;10.966;2023-02-01T09:21:57;3.60;99.90
29501;DHT22;16450;50.288;10.966;2023-02-01T09:24:59;3.60;99.90
29501;DHT22;16450;50.288;10.966;2023-02-01T09:28:00;3.60;99.90
29501;DHT22;16450;50.288;10.966;2023-02-01T09:31:02;3.70;99.90
29501;DHT22;16450;50.288;10.966;2023-02-01T09:34:05;3.70;99.90
29501;DHT22;16450;50.288;10.966;2023-02-01T09:37:07;3.80;99.90
29501;DHT22;16450;50.288;10.966;2023-02-01T09:40:14;3.80;99.90
29501;DHT22;16450;50.288;10.966;2023-02-01T09:46:45;3.90;99.90
29501;DHT22;16450;50.288;10.966;2023-02-01T09:50:05;3.90;99.90
29501;DHT22;16450;50.288;10.966;2023-02-01T09:53:34;3.90;99.90
29501;DHT22;16450;50.288;10.966;2023-02-01T09:56:41;3.90;99.90
29501;DHT22;16450;50.288;10.966;2023-02-01T09:59:54;4.00;99.90
29501;DHT22;16450;50.288;10.966;2023-02-01T10:02:59;4.00;99.90
29501;DHT22;16450;50.288;10.966;2023-02-01T10:09:42;4.00;99.90
29501;DHT22;16450;50.288;10.966;2023-02-01T10:16:34;4.00;99.90
29501;DHT22;16450;50.288;10.966;2023-02-01T10:19:45;4.10;99.90
29501;DHT22;16450;50.288;10.966;2023-02-01T10:26:25;4.20;99.90
29501;DHT22;16450;50.288;10.966;2023-02-01T10:29:39;4.20;99.90
29501;DHT22;16450;50.288;10.966;2023-02-01T10:32:42;4.20;99.90
29501;DHT22;16450;50.288;10.966;2023-02-01T10:35:53;4.30;99.90
29501;DHT22;16450;50.288;10.966;2023-02-01T10:39:00;4.30;99.90
29501;DHT22;16450;50.288;10.966;2023-02-01T10:42:02;4.30;99.90
29501;DHT22;16450;50.288;10.966;2023-02-01T10:45:04;4.30;99.90
29501;DHT22;16450;50.288;10.966;2023-02-01T10:48:07;4.30;99.90
29501;DHT22;16450;50.288;10.966;2023-02-01T10:51:21;4.40;99.90
29501;DHT22;16450;50.288;10.966;2023-02-01T10:54:35;4.40;99.90
29501;DHT22;16450;50.288;10.966;2023-02-01T10:57:39;4.40;99.90
29501;DHT22;16450;50.288;10.966;2023-02-01T11:00:58;4.40;99.90
29501;DHT22;16450;50.288;10.966;2023-02-01T11:04:04;4.40;99.90
29501;DHT22;16450;50.288;10.966;2023-02-01T11:07:19;4.40;99.90
29501;DHT22;16450;50.288;10.966;2023-02-01T11:10:42;4.40;99.90
29501;DHT22;16450;50.288;10.966;2023-02-01T11:13:44;4.40;99.90
29501;DHT22;16450;50.288;10.966;2023-02-01T11:16:53;4.50;99.90
29501;DHT22;16450;50.288;10.966;2023-02-01T11:20:00;4.40;99.90
29501;DHT22;16450;50.288;10.966;2023-02-01T11:23:02;4.50;99.90
29501;DHT22;16450;50.288;10.966;2023-02-01T11:26:14;4.40;99.90
29501;DHT22;16450;50.288;10.966;2023-02-01T11:29:18;4.50;99.90
29501;DHT22;16450;50.288;10.966;2023-02-01T11:32:24;4.50;99.90
29501;DHT22;16450;50.288;10.966;2023-02-01T11:35:28;4.50;99.90
29501;DHT22;16450;50.288;10.966;2023-02-01T11:38:33;4.50;99.90
29501;DHT22;16450;50.288;10.966;2023-02-01T11:41:41;4.50;99.90
29501;DHT22;16450;50.288;10.966;2023-02-01T11:44:45;4.60;99.90
29501;DHT22;16450;50.288;10.966;2023-02-01T11:47:52;4.50;99.90
29501;DHT22;16450;50.288;10.966;2023-02-01T11:54:27;4.50;99.90
29501;DHT22;16450;50.288;10.966;2023-02-01T11:57:56;4.50;99.90
29501;DHT22;16450;50.288;10.966;2023-02-01T12:04:44;4.50;99.90
29501;DHT22;16450;50.288;10.966;2023-02-01T12:08:03;4.50;99.90
29501;DHT22;16450;50.288;10.966;2023-02-01T12:21:51;4.50;99.90
29501;DHT22;16450;50.288;10.966;2023-02-01T12:32:02;4.50;99.90
29501;DHT22;16450;50.288;10.966;2023-02-01T12:36:12;4.60;99.90
29501;DHT22;16450;50.288;10.966;2023-02-01T12:39:02;4.60;99.90
29501;DHT22;16450;50.288;10.966;2023-02-01T12:45:34;4.60;99.90
29501;DHT22;16450;50.288;10.966;2023-02-01T12:52:26;4.60;99.90
29501;DHT22;16450;50.288;10.966;2023-02-01T12:55:43;4.60;99.90
29501;DHT22;16450;50.288;10.966;2023-02-01T12:58:54;4.70;99.90
29501;DHT22;16450;50.288;10.966;2023-02-01T13:05:21;4.70;99.90
29501;DHT22;16450;50.288;10.966;2023-02-01T13:08:38;4.70;99.90
29501;DHT22;16450;50.288;10.966;2023-02-01T13:11:44;4.70;99.90
29501;DHT22;16450;50.288;10.966;2023-02-01T13:14:56;4.70;99.90
29501;DHT22;16450;50.288;10.966;2023-02-01T13:18:02;4.80;99.90
29501;DHT22;16450;50.288;10.966;2023-02-01T13:21:24;4.80;99.90
29501;DHT22;16450;50.288;10.966;2023-02-01T13:24:31;4.80;99.90
29501;DHT22;16450;50.288;10.966;2023-02-01T13:27:34;4.80;99.90
29501;DHT22;16450;50.288;10.966;2023-02-01T13:30:53;4.80;99.90
29501;DHT22;16450;50.288;10.966;2023-02-01T13:41:27;4.80;99.90
29501;DHT22;16450;50.288;10.966;2023-02-01T13:44:44;4.80;99.90
29501;DHT22;16450;50.288;10.966;2023-02-01T13:47:50;4.80;99.90
29501;DHT22;16450;50.288;10.966;2023-02-01T13:50:59;4.80;99.90
29501;DHT22;16450;50.288;10.966;2023-02-01T13:54:02;4.90;99.90
29501;DHT22;16450;50.288;10.966;2023-02-01T13:57:13;4.80;99.90
29501;DHT22;16450;50.288;10.966;2023-02-01T14:00:36;4.80;99.90
29501;DHT22;16450;50.288;10.966;2023-02-01T14:03:46;4.80;99.90
29501;DHT22;16450;50.288;10.966;2023-02-01T14:06:52;4.80;99.90
29501;DHT22;16450;50.288;10.966;2023-02-01T14:09:54;4.80;99.90
29501;DHT22;16450;50.288;10.966;2023-02-01T14:16:39;4.80;99.90
29501;DHT22;16450;50.288;10.966;2023-02-01T14:19:41;4.70;99.90
29501;DHT22;16450;50.288;10.966;2023-02-01T14:22:43;4.80;99.90
29501;DHT22;16450;50.288;10.966;2023-02-01T14:25:48;4.80;99.90
29501;DHT22;16450;50.288;10.966;2023-02-01T14:32:24;4.80;99.90
29501;DHT22;16450;50.288;10.966;2023-02-01T14:35:29;5.00;99.90
29501;DHT22;16450;50.288;10.966;2023-02-01T14:38:32;4.80;99.90
29501;DHT22;16450;50.288;10.966;2023-02-01T14:41:36;4.80;99.90
29501;DHT22;16450;50.288;10.966;2023-02-01T14:44:43;4.80;99.90
29501;DHT22;16450;50.288;10.966;2023-02-01T14:51:09;4.80;99.90
29501;DHT22;16450;50.288;10.966;2023-02-01T14:54:14;4.90;99.90
29501;DHT22;16450;50.288;10.966;2023-02-01T14:57:17;4.80;99.90
29501;DHT22;16450;50.288;10.966;2023-02-01T15:00:26;4.90;99.90
29501;DHT22;16450;50.288;10.966;2023-02-01T15:06:54;4.80;99.90
29501;DHT22;16450;50.288;10.966;2023-02-01T15:09:59;4.80;99.90
29501;DHT22;16450;50.288;10.966;2023-02-01T15:13:01;4.70;99.90
29501;DHT22;16450;50.288;10.966;2023-02-01T15:16:12;4.80;99.90
29501;DHT22;16450;50.288;10.966;2023-02-01T15:19:14;4.70;99.90
29501;DHT22;16450;50.288;10.966;2023-02-01T15:22:18;4.70;99.90
29501;DHT22;16450;50.288;10.966;2023-02-01T15:25:29;4.70;99.90
29501;DHT22;16450;50.288;10.966;2023-02-01T15:28:32;4.70;99.90
29501;DHT22;16450;50.288;10.966;2023-02-01T15:31:48;4.70;99.90
29501;DHT22;16450;50.288;10.966;2023-02-01T15:34:51;4.70;99.90
29501;DHT22;16450;50.288;10.966;2023-02-01T15:38:34;4.70;99.90
29501;DHT22;16450;50.288;10.966;2023-02-01T15:41:37;4.70;99.90
29501;DHT22;16450;50.288;10.966;2023-02-01T15:44:45;4.70;99.90
29501;DHT22;16450;50.288;10.966;2023-02-01T15:47:49;4.60;99.90
29501;DHT22;16450;50.288;10.966;2023-02-01T15:50:52;4.60;99.90
29501;DHT22;16450;50.288;10.966;2023-02-01T15:54:01;4.70;99.90
29501;DHT22;16450;50.288;10.966;2023-02-01T15:57:04;4.60;99.90
29501;DHT22;16450;50.288;10.966;2023-02-01T16:00:18;4.60;99.90
29501;DHT22;16450;50.288;10.966;2023-02-01T16:06:31;4.60;99.90
29501;DHT22;16450;50.288;10.966;2023-02-01T16:09:41;4.60;99.90
29501;DHT22;16450;50.288;10.966;2023-02-01T16:12:50;4.60;99.90
29501;DHT22;16450;50.288;10.966;2023-02-01T16:15:53;4.70;99.90
29501;DHT22;16450;50.288;10.966;2023-02-01T16:18:55;4.60;99.90
29501;DHT22;16450;50.288;10.966;2023-02-01T16:21:57;4.60;99.90
29501;DHT22;16450;50.288;10.966;2023-02-01T16:25:00;4.60;99.90
29501;DHT22;16450;50.288;10.966;2023-02-01T16:28:03;4.60;99.90
29501;DHT22;16450;50.288;10.966;2023-02-01T16:31:11;4.60;99.90
29501;DHT22;16450;50.288;10.966;2023-02-01T16:34:20;4.60;99.90
29501;DHT22;16450;50.288;10.966;2023-02-01T16:37:24;4.60;99.90
29501;DHT22;16450;50.288;10.966;2023-02-01T16:40:26;4.60;99.90
29501;DHT22;16450;50.288;10.966;2023-02-01T16:43:28;4.60;99.90
29501;DHT22;16450;50.288;10.966;2023-02-01T16:46:33;4.60;99.90
29501;DHT22;16450;50.288;10.966;2023-02-01T16:49:36;4.60;99.90
29501;DHT22;16450;50.288;10.966;2023-02-01T16:52:39;4.60;99.90
29501;DHT22;16450;50.288;10.966;2023-02-01T16:55:42;4.60;99.90
29501;DHT22;16450;50.288;10.966;2023-02-01T16:58:45;4.60;99.90
29501;DHT22;16450;50.288;10.966;2023-02-01T17:01:48;4.60;99.90
29501;DHT22;16450;50.288;10.966;2023-02-01T17:04:50;4.60;99.90
29501;DHT22;16450;50.288;10.966;2023-02-01T17:07:52;4.50;99.90
29501;DHT22;16450;50.288;10.966;2023-02-01T17:10:54;4.50;99.90
29501;DHT22;16450;50.288;10.966;2023-02-01T17:14:29;4.50;99.90
29501;DHT22;16450;50.288;10.966;2023-02-01T17:17:35;4.50;99.90
29501;DHT22;16450;50.288;10.966;2023-02-01T17:20:40;4.50;99.90
29501;DHT22;16450;50.288;10.966;2023-02-01T17:23:43;4.50;99.90
29501;DHT22;16450;50.288;10.966;2023-02-01T17:26:46;4.50;99.90
29501;DHT22;16450;50.288;10.966;2023-02-01T17:29:50;4.50;99.90
29501;DHT22;16450;50.288;10.966;2023-02-01T17:32:52;4.50;99.90
29501;DHT22;16450;50.288;10.966;2023-02-01T17:35:56;4.50;99.90
29501;DHT22;16450;50.288;10.966;2023-02-01T17:38:58;4.50;99.90
29501;DHT22;16450;50.288;10.966;2023-02-01T17:42:11;4.50;99.90
29501;DHT22;16450;50.288;10.966;2023-02-01T17:48:33;4.50;99.90
29501;DHT22;16450;50.288;10.966;2023-02-01T17:51:35;4.50;99.90
29501;DHT22;16450;50.288;10.966;2023-02-01T17:54:37;4.40;99.90
29501;DHT22;16450;50.288;10.966;2023-02-01T17:57:39;4.40;99.90
29501;DHT22;16450;50.288;10.966;2023-02-01T18:00:42;4.50;99.90
29501;DHT22;16450;50.288;10.966;2023-02-01T18:03:44;4.40;99.90
29501;DHT22;16450;50.288;10.966;2023-02-01T18:06:46;4.50;99.90
29501;DHT22;16450;50.288;10.966;2023-02-01T18:09:48;4.40;99.90
29501;DHT22;16450;50.288;10.966;2023-02-01T18:12:50;4.40;99.90
29501;DHT22;16450;50.288;10.966;2023-02-01T18:15:52;4.40;99.90
29501;DHT22;16450;50.288;10.966;2023-02-01T18:18:54;4.40;99.90
29501;DHT22;16450;50.288;10.966;2023-02-01T18:22:02;4.40;99.90
29501;DHT22;16450;50.288;10.966;2023-02-01T18:28:21;4.40;99.90
29501;DHT22;16450;50.288;10.966;2023-02-01T18:31:29;4.40;99.90
29501;DHT22;16450;50.288;10.966;2023-02-01T18:34:32;4.40;99.90
29501;DHT22;16450;50.288;10.966;2023-02-01T18:37:34;4.40;99.90
29501;DHT22;16450;50.288;10.966;2023-02-01T18:40:48;4.40;99.90
29501;DHT22;16450;50.288;10.966;2023-02-01T18:43:51;4.40;99.90
29501;DHT22;16450;50.288;10.966;2023-02-01T18:46:53;4.40;99.90
29501;DHT22;16450;50.288;10.966;2023-02-01T18:49:55;4.40;99.90
29501;DHT22;16450;50.288;10.966;2023-02-01T18:52:58;4.40;99.90
29501;DHT22;16450;50.288;10.966;2023-02-01T18:56:01;4.50;99.90
29501;DHT22;16450;50.288;10.966;2023-02-01T18:59:03;4.50;99.90
29501;DHT22;16450;50.288;10.966;2023-02-01T19:02:05;4.50;99.90
29501;DHT22;16450;50.288;10.966;2023-02-01T19:05:09;4.50;99.90
29501;DHT22;16450;50.288;10.966;2023-02-01T19:08:11;4.50;99.90
29501;DHT22;16450;50.288;10.966;2023-02-01T19:11:13;4.50;99.90
29501;DHT22;16450;50.288;10.966;2023-02-01T19:14:15;4.60;99.90
29501;DHT22;16450;50.288;10.966;2023-02-01T19:17:17;4.50;99.90
29501;DHT22;16450;50.288;10.966;2023-02-01T19:20:22;4.50;99.90
29501;DHT22;16450;50.288;10.966;2023-02-01T19:23:25;4.50;99.90
29501;DHT22;16450;50.288;10.966;2023-02-01T19:26:26;4.60;99.90
29501;DHT22;16450;50.288;10.966;2023-02-01T19:29:29;4.60;99.90
29501;DHT22;16450;50.288;10.966;2023-02-01T19:32:31;4.60;99.90
29501;DHT22;16450;50.288;10.966;2023-02-01T19:35:33;4.60;99.90
29501;DHT22;16450;50.288;10.966;2023-02-01T19:38:35;4.50;99.90
29501;DHT22;16450;50.288;10.966;2023-02-01T19:41:36;4.50;99.90
29501;DHT22;16450;50.288;10.966;2023-02-01T19:44:38;4.50;99.90
29501;DHT22;16450;50.288;10.966;2023-02-01T19:47:40;4.40;99.90
29501;DHT22;16450;50.288;10.966;2023-02-01T19:50:42;4.40;99.90
29501;DHT22;16450;50.288;10.966;2023-02-01T19:53:44;4.40;99.90
29501;DHT22;16450;50.288;10.966;2023-02-01T19:56:46;4.30;99.90
29501;DHT22;16450;50.288;10.966;2023-02-01T19:59:51;4.30;99.90
29501;DHT22;16450;50.288;10.966;2023-02-01T20:02:53;4.30;99.90
29501;DHT22;16450;50.288;10.966;2023-02-01T20:05:57;4.20;99.90
29501;DHT22;16450;50.288;10.966;2023-02-01T20:08:59;4.20;99.90
29501;DHT22;16450;50.288;10.966;2023-02-01T20:12:01;4.20;99.90
29501;DHT22;16450;50.288;10.966;2023-02-01T20:15:05;4.10;99.90
29501;DHT22;16450;50.288;10.966;2023-02-01T20:18:07;4.10;99.90
29501;DHT22;16450;50.288;10.966;2023-02-01T20:21:09;4.10;99.90
29501;DHT22;16450;50.288;10.966;2023-02-01T20:24:16;4.10;99.90
29501;DHT22;16450;50.288;10.966;2023-02-01T20:27:21;4.10;99.90
29501;DHT22;16450;50.288;10.966;2023-02-01T20:30:23;4.00;99.90
29501;DHT22;16450;50.288;10.966;2023-02-01T20:33:25;4.00;99.90
29501;DHT22;16450;50.288;10.966;2023-02-01T20:36:29;4.00;99.90
29501;DHT22;16450;50.288;10.966;2023-02-01T20:39:31;3.90;99.90
29501;DHT22;16450;50.288;10.966;2023-02-01T20:42:33;4.10;99.90
29501;DHT22;16450;50.288;10.966;2023-02-01T20:45:42;3.90;99.90
29501;DHT22;16450;50.288;10.966;2023-02-01T20:48:46;3.90;99.90
29501;DHT22;16450;50.288;10.966;2023-02-01T20:51:48;3.90;99.90
29501;DHT22;16450;50.288;10.966;2023-02-01T20:54:50;3.90;99.90
29501;DHT22;16450;50.288;10.966;2023-02-01T20:57:51;3.90;99.90
29501;DHT22;16450;50.288;10.966;2023-02-01T21:00:54;3.90;99.90
29501;DHT22;16450;50.288;10.966;2023-02-01T21:03:56;3.80;99.90